Time;durP1;ratioP1;P1;durP2;ratioP2;P2;SDS_P1;SDS_P2;PMS_P1;PMS_P2;Temp;Humidity;BMP_temperature;BMP_pressure;BME280_temperature;BME280_humidity;BME280_pressure;Samples;Min_cycle;Max_cycle;Signal;HPM_P1;HPM_P2
2022/11/23 00:00:38;;;;;;;3.37;2.70;;;;;;;7.60;82.55;94366.06;5071784;28;20242;-80
2022/11/23 00:03:06;;;;;;;3.70;2.30;;;;;;;7.61;83.05;94366.84;5071484;28;20208;-80
2022/11/23 00:05:34;;;;;;;4.30;2.47;;;;;;;7.62;82.75;94374.34;5072314;28;20698;-82
2022/11/23 00:08:00;;;;;;;3.20;2.70;;;;;;;7.61;83.91;94383.00;5071632;28;20200;-80
2022/11/23 00:10:27;;;;;;;4.97;2.60;;;;;;;7.62;83.67;94369.22;5071710;28;20703;-82
2022/11/23 00:12:56;;;;;;;3.80;2.63;;;;;;;7.65;83.70;94380.06;5080348;28;20200;-81
2022/11/23 00:15:23;;;;;;;4.77;2.70;;;;;;;7.62;83.52;94371.78;5091474;28;20220;-79
2022/11/23 00:17:49;;;;;;;6.30;2.90;;;;;;;7.62;83.71;94376.13;5091355;28;20200;-78
2022/11/23 00:20:17;;;;;;;5.30;3.00;;;;;;;7.63;83.24;94378.50;5091740;28;20212;-81
2022/11/23 00:22:44;;;;;;;3.30;2.67;;;;;;;7.62;83.13;94371.00;5090902;28;20200;-82
2022/11/23 00:25:10;;;;;;;3.67;2.40;;;;;;;7.62;83.23;94369.22;5090624;28;20195;-79
2022/11/23 00:27:36;;;;;;;3.50;2.57;;;;;;;7.62;83.39;94374.34;5090640;28;20204;-80
2022/11/23 00:30:04;;;;;;;7.40;2.77;;;;;;;7.55;83.78;94378.63;5082522;28;20212;-80
2022/11/23 00:32:30;;;;;;;5.17;2.80;;;;;;;7.58;83.67;94380.81;5090395;28;20200;-80
2022/11/23 00:34:56;;;;;;;4.67;2.57;;;;;;;7.60;83.52;94376.28;5090450;28;20745;-81
2022/11/23 00:37:24;;;;;;;3.83;2.43;;;;;;;7.63;83.62;94370.00;5091103;28;20200;-79
2022/11/23 00:39:51;;;;;;;2.67;2.40;;;;;;;7.64;83.58;94363.91;5090989;28;20296;-80
2022/11/23 00:42:17;;;;;;;5.87;2.70;;;;;;;7.62;83.45;94369.22;5090624;28;20566;-79
2022/11/23 00:44:44;;;;;;;3.93;2.70;;;;;;;7.63;82.87;94365.69;5090856;28;20226;-80
2022/11/23 00:47:10;;;;;;;4.43;2.57;;;;;;;7.62;83.06;94371.00;5090124;28;20783;-79
2022/11/23 00:49:36;;;;;;;3.40;2.37;;;;;;;7.57;83.75;94370.75;5090261;28;20434;-80
2022/11/23 00:52:03;;;;;;;3.03;2.13;;;;;;;7.58;83.46;94374.91;5090364;28;20204;-79
2022/11/23 00:54:31;;;;;;;4.43;2.40;;;;;;;7.58;83.50;94372.34;5076549;28;20703;-80
2022/11/23 00:56:57;;;;;;;4.43;2.30;;;;;;;7.54;83.71;94373.69;5069817;28;20705;-79
2022/11/23 00:59:24;;;;;;;4.83;2.50;;;;;;;7.52;83.60;94363.63;5069572;28;20217;-79
2022/11/23 01:01:50;;;;;;;3.83;2.60;;;;;;;7.52;83.98;94368.75;5073543;28;20219;-80
2022/11/23 01:04:20;;;;;;;4.13;2.30;;;;;;;7.53;83.89;94364.41;5074020;28;20201;-81
2022/11/23 01:06:46;;;;;;;4.63;2.10;;;;;;;7.52;83.51;94361.06;5073222;28;20786;-79
2022/11/23 01:09:14;;;;;;;4.70;2.47;;;;;;;7.55;83.88;94367.59;5075599;28;20228;-80
2022/11/23 01:11:42;;;;;;;2.20;2.00;;;;;;;7.52;83.62;94373.06;5073358;28;20200;-80
2022/11/23 01:14:09;;;;;;;2.23;1.90;;;;;;;7.51;83.97;94364.59;5076865;28;20196;-81
2022/11/23 01:16:38;;;;;;;5.53;2.47;;;;;;;7.51;83.90;94366.38;5093849;28;20620;-79
2022/11/23 01:19:07;;;;;;;3.93;2.20;;;;;;;7.45;84.04;94373.06;5093057;28;20715;-80
2022/11/23 01:21:35;;;;;;;4.30;2.33;;;;;;;7.46;84.02;94377.19;5074039;28;20209;-79
2022/11/23 01:24:04;;;;;;;5.07;2.17;;;;;;;7.47;84.09;94378.00;5081356;28;20196;-81
2022/11/23 01:26:33;;;;;;;2.10;1.90;;;;;;;7.47;83.67;94376.22;5081964;28;20283;-80
2022/11/23 01:29:01;;;;;;;3.47;2.23;;;;;;;7.49;83.85;94370.91;5072901;28;20220;-81
2022/11/23 01:31:27;;;;;;;5.03;1.80;;;;;;;7.48;84.03;94375.25;5073416;28;20575;-80
2022/11/23 01:33:55;;;;;;;2.70;2.23;;;;;;;7.45;84.52;94378.16;5073261;28;20205;-81
2022/11/23 01:36:24;;;;;;;4.10;2.57;;;;;;;7.45;84.86;94385.84;5072793;28;20231;-80
2022/11/23 01:38:50;;;;;;;2.53;2.00;;;;;;;7.47;84.81;94380.56;5071939;28;20228;-81
2022/11/23 01:41:19;;;;;;;3.27;2.10;;;;;;;7.45;84.88;94385.06;5073196;28;20222;-79
2022/11/23 01:43:46;;;;;;;2.30;2.07;;;;;;;7.45;84.99;94379.94;5072899;28;20830;-81
2022/11/23 01:46:13;;;;;;;3.40;2.20;;;;;;;7.39;85.25;94388.34;5073439;28;20192;-79
2022/11/23 01:48:46;;;;;;;3.43;1.97;;;;;;;7.40;85.19;94392.50;5073154;28;20629;-79
2022/11/23 01:51:15;;;;;;;3.67;2.00;;;;;;;7.42;85.21;94391.34;5073657;28;20713;-79
2022/11/23 01:53:45;;;;;;;2.40;1.80;;;;;;;7.44;84.98;94388.59;5080019;28;20204;-80
2022/11/23 01:56:15;;;;;;;2.87;1.90;;;;;;;7.45;84.76;94400.44;5092466;28;20220;-79
2022/11/23 01:58:45;;;;;;;2.60;2.30;;;;;;;7.43;84.60;94398.06;5092507;28;20231;-80
2022/11/23 02:01:12;;;;;;;3.47;2.30;;;;;;;7.44;84.77;94396.28;5097111;28;20822;-80
2022/11/23 02:03:42;;;;;;;3.93;1.93;;;;;;;7.43;84.53;94400.59;5093682;28;20232;-80
2022/11/23 02:06:13;;;;;;;3.27;1.90;;;;;;;7.43;84.60;94404.94;5093247;28;20207;-80
2022/11/23 02:08:40;;;;;;;3.60;2.00;;;;;;;7.43;84.84;94399.81;5093057;28;20277;-79
2022/11/23 02:11:07;;;;;;;3.17;1.93;;;;;;;7.43;84.82;94410.06;5092807;28;20192;-81
2022/11/23 02:13:34;;;;;;;3.27;1.83;;;;;;;7.44;84.73;94403.97;5091028;28;20200;-80
2022/11/23 02:16:01;;;;;;;2.97;2.13;;;;;;;7.39;85.07;94404.50;5092723;28;20224;-81
2022/11/23 02:18:30;;;;;;;3.33;2.10;;;;;;;7.36;84.78;94402.31;5091682;28;20203;-80
2022/11/23 02:21:00;;;;;;;4.63;1.90;;;;;;;7.30;85.25;94397.16;5090666;28;20606;-79
2022/11/23 02:23:37;;;;;;;2.43;1.90;;;;;;;7.31;85.08;94394.44;5085563;28;20543;-81
2022/11/23 02:26:08;;;;;;;2.40;1.50;;;;;;;7.30;84.91;94394.59;5092157;28;20191;-80
2022/11/23 02:28:38;;;;;;;1.90;1.70;;;;;;;7.31;84.65;94396.97;5092521;28;20224;-80
2022/11/23 02:31:05;;;;;;;3.43;1.90;;;;;;;7.28;84.62;94390.47;5092336;28;20204;-80
2022/11/23 02:33:31;;;;;;;2.67;1.60;;;;;;;7.28;84.75;94397.34;5092028;28;20225;-79
2022/11/23 02:36:00;;;;;;;3.90;2.10;;;;;;;7.30;84.93;94394.59;5092110;28;20220;-80
2022/11/23 02:38:30;;;;;;;4.27;1.93;;;;;;;7.33;84.82;94400.13;5093248;28;20227;-80
2022/11/23 02:40:56;;;;;;;2.47;1.70;;;;;;;7.32;84.78;94403.66;5092707;28;20200;-79
2022/11/23 02:43:24;;;;;;;3.00;2.20;;;;;;;7.30;84.67;94392.84;5092458;28;20200;-80
2022/11/23 02:45:54;;;;;;;5.97;1.97;;;;;;;7.26;84.09;94399.31;5092404;28;20192;-78
2022/11/23 02:48:21;;;;;;;1.97;1.77;;;;;;;7.26;84.09;94394.19;5091796;28;20200;-80
2022/11/23 02:50:47;;;;;;;3.93;2.20;;;;;;;7.24;84.15;94393.56;5091815;28;20207;-79
2022/11/23 02:53:14;;;;;;;3.00;1.87;;;;;;;7.21;84.08;94388.81;5091596;28;20206;-80
2022/11/23 02:55:40;;;;;;;2.97;1.80;;;;;;;7.20;84.05;94388.03;5091388;28;20204;-81
2022/11/23 02:58:07;;;;;;;3.57;1.87;;;;;;;7.19;83.94;94394.13;5091420;28;20680;-80
2022/11/23 03:00:35;;;;;;;3.60;1.60;;;;;;;7.16;83.73;94391.94;5091524;28;20223;-80
2022/11/23 03:03:02;;;;;;;2.13;1.50;;;;;;;7.12;83.28;94395.81;5091437;28;20204;-79
2022/11/23 03:05:29;;;;;;;5.33;1.47;;;;;;;7.09;83.47;94392.88;5091736;28;20195;-80
2022/11/23 03:07:55;;;;;;;4.47;1.57;;;;;;;7.09;83.20;94395.41;5091507;28;20203;-80
2022/11/23 03:10:22;;;;;;;3.17;1.67;;;;;;;7.07;83.43;94399.94;5091833;28;20224;-80
2022/11/23 03:12:48;;;;;;;1.97;1.40;;;;;;;7.07;83.15;94400.72;5091279;28;20204;-80
2022/11/23 03:15:15;;;;;;;3.23;1.50;;;;;;;7.06;83.30;94399.13;5091917;28;20553;-80
2022/11/23 03:17:42;;;;;;;3.97;1.60;;;;;;;7.04;83.40;94410.53;5083756;28;20200;-79
2022/11/23 03:20:10;;;;;;;2.23;1.47;;;;;;;7.04;83.29;94402.84;5090489;28;20216;-80
2022/11/23 03:22:36;;;;;;;2.33;1.70;;;;;;;7.06;83.49;94406.81;5091544;28;20196;-80
2022/11/23 03:25:03;;;;;;;3.53;1.50;;;;;;;7.01;83.37;94409.13;5090234;28;20215;-79
2022/11/23 03:27:32;;;;;;;2.53;1.60;;;;;;;6.95;83.05;94407.28;5091220;28;20200;-80
2022/11/23 03:29:58;;;;;;;3.67;1.73;;;;;;;6.93;83.53;94411.78;5091210;28;20715;-80
2022/11/23 03:32:25;;;;;;;1.80;1.40;;;;;;;6.92;83.40;94405.13;5090806;28;20200;-80
2022/11/23 03:34:53;;;;;;;2.60;1.70;;;;;;;6.92;83.37;94403.34;5090736;28;20196;-80
2022/11/23 03:37:19;;;;;;;4.50;1.90;;;;;;;6.92;83.58;94400.00;5090076;28;20228;-80
2022/11/23 03:39:45;;;;;;;2.73;1.70;;;;;;;6.90;83.42;94401.94;5089518;28;20707;-80
2022/11/23 03:42:12;;;;;;;2.93;1.70;;;;;;;6.88;83.37;94403.91;5090747;28;20200;-80
2022/11/23 03:44:41;;;;;;;3.87;1.63;;;;;;;6.89;82.92;94396.03;5090611;28;20201;-79
2022/11/23 03:47:07;;;;;;;2.90;1.70;;;;;;;6.89;82.98;94393.47;5089444;28;20204;-80
2022/11/23 03:49:34;;;;;;;1.90;1.60;;;;;;;6.86;82.75;94398.97;5089895;28;20227;-80
2022/11/23 03:52:02;;;;;;;3.73;1.70;;;;;;;6.82;83.21;94391.81;5090160;28;20204;-80
2022/11/23 03:54:28;;;;;;;2.30;1.70;;;;;;;6.79;83.24;94400.66;5089699;28;20218;-81
2022/11/23 03:56:54;;;;;;;5.70;1.70;;;;;;;6.76;83.25;94392.53;5089956;28;20227;-80
2022/11/23 03:59:21;;;;;;;3.03;1.70;;;;;;;6.68;83.36;94388.34;5089985;28;20219;-80
2022/11/23 04:01:47;;;;;;;2.10;1.50;;;;;;;6.69;83.40;94389.94;5089986;28;20204;-78
2022/11/23 04:04:14;;;;;;;3.37;1.80;;;;;;;6.66;83.25;94384.38;5089547;28;20591;-80
2022/11/23 04:06:40;;;;;;;2.13;1.67;;;;;;;6.66;83.56;94389.50;5090216;28;20196;-79
2022/11/23 04:09:09;;;;;;;3.13;1.73;;;;;;;6.64;83.47;94381.22;5089654;28;20301;-79
2022/11/23 04:11:35;;;;;;;2.70;1.90;;;;;;;6.61;83.76;94390.03;5090140;28;20749;-80
2022/11/23 04:14:01;;;;;;;2.50;1.77;;;;;;;6.64;83.60;94391.44;5081739;28;20824;-81
2022/11/23 04:16:28;;;;;;;3.40;1.80;;;;;;;6.61;83.54;94395.16;5089911;28;20227;-79
2022/11/23 04:18:54;;;;;;;2.10;1.50;;;;;;;6.56;83.55;94397.47;5090005;28;20224;-80
2022/11/23 04:21:21;;;;;;;1.70;1.60;;;;;;;6.54;83.89;94392.53;5090117;28;20207;-79
2022/11/23 04:23:47;;;;;;;3.40;2.10;;;;;;;6.52;83.79;94388.59;5090219;28;20204;-78
2022/11/23 04:26:15;;;;;;;3.93;1.73;;;;;;;6.48;83.74;94397.59;5090175;28;20204;-81
2022/11/23 04:28:41;;;;;;;2.73;2.00;;;;;;;6.47;83.94;94391.69;5090032;28;20239;-79
2022/11/23 04:31:08;;;;;;;3.20;1.70;;;;;;;6.51;83.87;94389.56;5089631;28;20231;-80
2022/11/23 04:33:34;;;;;;;1.70;1.60;;;;;;;6.54;83.95;94391.75;5090107;28;20200;-81
2022/11/23 04:36:01;;;;;;;2.13;1.70;;;;;;;6.55;83.98;94393.31;5091842;28;20219;-79
2022/11/23 04:38:27;;;;;;;2.00;1.80;;;;;;;6.55;83.81;94391.56;5093687;28;20200;-80
2022/11/23 04:40:54;;;;;;;2.83;1.70;;;;;;;6.48;84.08;94395.81;5093796;28;20196;-80
2022/11/23 04:43:21;;;;;;;2.77;1.50;;;;;;;6.48;84.04;94392.47;5093877;28;20207;-79
2022/11/23 04:45:48;;;;;;;2.63;1.90;;;;;;;6.46;84.27;94394.41;5093440;28;20204;-79
2022/11/23 04:48:14;;;;;;;1.97;1.70;;;;;;;6.46;84.77;94392.66;5093340;28;20200;-79
2022/11/23 04:50:41;;;;;;;2.83;1.50;;;;;;;6.52;84.18;94389.38;5093932;28;20238;-80
2022/11/23 04:53:08;;;;;;;2.20;1.80;;;;;;;6.51;84.48;94389.56;5093077;28;20573;-79
2022/11/23 04:55:34;;;;;;;1.97;1.60;;;;;;;6.54;84.38;94389.97;5093556;28;20191;-80
2022/11/23 04:58:01;;;;;;;2.70;1.70;;;;;;;6.59;84.35;94381.75;5093461;28;20200;-78
2022/11/23 05:00:29;;;;;;;1.60;1.50;;;;;;;6.57;84.54;94376.03;5093301;28;20310;-79
2022/11/23 05:02:55;;;;;;;3.47;2.07;;;;;;;6.62;84.20;94378.84;5093358;28;20204;-80
2022/11/23 05:05:22;;;;;;;2.67;1.90;;;;;;;6.62;84.08;94383.97;5093709;28;20612;-80
2022/11/23 05:07:48;;;;;;;7.07;1.80;;;;;;;6.60;84.69;94378.22;5092990;28;20709;-80
2022/11/23 05:10:14;;;;;;;2.07;1.87;;;;;;;6.63;84.52;94375.31;5091992;28;20213;-80
2022/11/23 05:12:41;;;;;;;2.10;1.67;;;;;;;6.66;84.20;94379.28;5077097;28;20196;-80
2022/11/23 05:15:10;;;;;;;3.50;1.83;;;;;;;6.69;84.16;94376.34;5072762;28;20233;-79
2022/11/23 05:17:38;;;;;;;3.90;1.93;;;;;;;6.69;83.99;94376.34;5072498;28;20220;-80
2022/11/23 05:20:06;;;;;;;2.43;1.70;;;;;;;6.66;84.29;94372.41;5079904;28;20227;-79
2022/11/23 05:22:32;;;;;;;4.40;1.80;;;;;;;6.64;84.93;94373.53;5093442;28;20204;-80
2022/11/23 05:24:59;;;;;;;3.57;1.73;;;;;;;6.63;84.62;94375.31;5093008;28;20671;-79
2022/11/23 05:27:25;;;;;;;3.50;1.90;;;;;;;6.63;84.68;94366.84;5093194;28;20704;-80
2022/11/23 05:29:52;;;;;;;2.33;1.90;;;;;;;6.69;84.77;94372.03;5093158;28;20216;-80
2022/11/23 05:32:18;;;;;;;2.60;1.70;;;;;;;6.71;84.52;94369.31;5092734;28;20621;-79
2022/11/23 05:34:46;;;;;;;3.73;1.70;;;;;;;6.74;84.73;94372.25;5089868;28;20201;-78
2022/11/23 05:37:13;;;;;;;2.63;1.80;;;;;;;6.75;84.91;94366.16;5066162;28;20646;-79
2022/11/23 05:39:39;;;;;;;2.90;2.00;;;;;;;6.75;84.77;94367.94;5077141;28;20224;-79
2022/11/23 05:42:05;;;;;;;3.90;2.10;;;;;;;6.79;84.47;94364.03;5072768;28;20197;-80
2022/11/23 05:44:32;;;;;;;3.20;1.90;;;;;;;6.77;84.54;94363.44;5079988;28;20200;-79
2022/11/23 05:46:58;;;;;;;3.53;1.97;;;;;;;6.80;84.41;94365.63;5087746;28;20211;-79
2022/11/23 05:49:25;;;;;;;2.93;1.60;;;;;;;6.80;84.82;94366.44;5082042;28;20236;-79
2022/11/23 05:51:53;;;;;;;4.43;2.00;;;;;;;6.81;84.70;94369.78;5071719;28;20205;-79
2022/11/23 05:54:19;;;;;;;2.97;1.83;;;;;;;6.80;84.49;94366.44;5076305;28;20212;-80
2022/11/23 05:56:46;;;;;;;2.43;2.00;;;;;;;6.83;84.60;94365.28;5078442;28;20220;-81
2022/11/23 05:59:12;;;;;;;5.53;2.10;;;;;;;6.83;84.25;94372.94;5089774;28;20227;-80
2022/11/23 06:01:39;;;;;;;4.13;2.20;;;;;;;6.85;83.67;94366.69;5076431;28;20212;-80
2022/11/23 06:04:06;;;;;;;1.97;1.77;;;;;;;6.87;83.65;94364.72;5071300;28;20201;-80
2022/11/23 06:06:32;;;;;;;3.23;2.37;;;;;;;6.88;83.60;94366.31;5077386;28;20192;-81
2022/11/23 06:09:00;;;;;;;2.10;1.90;;;;;;;6.88;83.68;94363.75;5072461;28;20733;-80
2022/11/23 06:11:27;;;;;;;3.40;2.20;;;;;;;6.87;84.26;94369.06;5079645;28;20204;-80
2022/11/23 06:13:53;;;;;;;2.97;2.10;;;;;;;6.89;84.20;94362.78;5090014;28;20211;-80
2022/11/23 06:16:19;;;;;;;3.83;2.10;;;;;;;6.90;84.31;94363.56;5073239;28;20224;-80
2022/11/23 06:18:50;;;;;;;2.70;2.00;;;;;;;6.89;84.43;94367.91;5074615;28;20221;-80
2022/11/23 06:21:16;;;;;;;4.53;2.20;;;;;;;6.88;84.66;94365.53;5077203;28;20193;-79
2022/11/23 06:23:43;;;;;;;4.37;2.40;;;;;;;6.89;84.24;94369.66;5086774;28;20215;-80
2022/11/23 06:26:11;;;;;;;3.27;2.00;;;;;;;6.91;83.76;94360.03;5088105;28;20200;-81
2022/11/23 06:28:38;;;;;;;3.37;1.87;;;;;;;6.91;83.96;94368.50;5070263;28;20196;-80
2022/11/23 06:31:06;;;;;;;3.90;1.70;;;;;;;6.93;83.76;94363.19;5070491;28;20200;-80
2022/11/23 06:33:32;;;;;;;3.27;2.53;;;;;;;6.95;84.20;94361.22;5078858;28;20208;-80
2022/11/23 06:36:01;;;;;;;5.00;2.20;;;;;;;6.94;83.68;94369.88;5087902;28;20199;-79
2022/11/23 06:38:27;;;;;;;4.83;2.13;;;;;;;6.90;84.65;94369.47;5090642;28;20203;-80
2022/11/23 06:40:57;;;;;;;4.17;2.30;;;;;;;6.83;84.40;94372.94;5090966;28;20211;-81
2022/11/23 06:43:25;;;;;;;4.43;2.10;;;;;;;6.82;84.84;94379.81;5092122;28;20185;-79
2022/11/23 06:45:52;;;;;;;2.63;2.00;;;;;;;6.73;84.96;94377.59;5084805;28;20192;-80
2022/11/23 06:48:18;;;;;;;4.00;2.30;;;;;;;6.62;85.86;94375.50;5080431;28;20586;-81
2022/11/23 06:50:45;;;;;;;2.93;2.00;;;;;;;6.57;86.38;94381.16;5085502;28;20713;-81
2022/11/23 06:53:11;;;;;;;2.60;1.53;;;;;;;6.52;86.47;94380.91;5090910;28;20257;-80
2022/11/23 06:55:38;;;;;;;3.73;2.00;;;;;;;6.58;86.25;94386.06;5070832;28;20184;-80
2022/11/23 06:58:05;;;;;;;4.53;2.13;;;;;;;6.62;86.62;94388.28;5070081;28;20228;-80
2022/11/23 07:00:33;;;;;;;4.10;2.40;;;;;;;6.64;87.15;94383.78;5071401;28;20255;-80
2022/11/23 07:03:00;;;;;;;2.93;1.80;;;;;;;6.71;86.48;94388.00;5088951;28;20200;-81
2022/11/23 07:05:27;;;;;;;4.60;2.43;;;;;;;6.66;86.42;94386.94;5081447;28;20192;-81
2022/11/23 07:07:54;;;;;;;4.57;2.20;;;;;;;6.67;86.70;94391.09;5087965;28;20200;-80
2022/11/23 07:10:20;;;;;;;6.93;2.43;;;;;;;6.73;86.24;94401.41;5070629;28;20271;-79
2022/11/23 07:12:49;;;;;;;5.43;2.30;;;;;;;6.64;86.64;94401.69;5070164;28;20204;-80
2022/11/23 07:15:16;;;;;;;3.90;2.40;;;;;;;6.68;86.51;94397.78;5076190;28;20200;-80
2022/11/23 07:17:44;;;;;;;2.67;1.90;;;;;;;6.70;86.45;94398.41;5089995;28;20766;-80
2022/11/23 07:20:12;;;;;;;5.37;2.47;;;;;;;6.69;86.30;94412.16;5088047;28;20745;-79
2022/11/23 07:22:39;;;;;;;4.33;2.40;;;;;;;6.74;85.85;94407.28;5090083;28;20196;-80
2022/11/23 07:25:06;;;;;;;3.60;2.20;;;;;;;6.74;85.80;94402.94;5089652;28;20204;-79
2022/11/23 07:27:32;;;;;;;2.30;2.10;;;;;;;6.77;86.03;94412.03;5090106;28;20211;-81
2022/11/23 07:29:59;;;;;;;3.77;2.33;;;;;;;6.86;85.39;94418.63;5090320;28;20224;-80
2022/11/23 07:32:25;;;;;;;3.40;2.20;;;;;;;6.91;85.16;94412.00;5090787;28;20201;-81
2022/11/23 07:34:53;;;;;;;4.10;2.13;;;;;;;6.94;85.07;94418.50;5090435;28;20200;-79
2022/11/23 07:37:20;;;;;;;2.83;2.30;;;;;;;6.99;85.40;94423.06;5090333;28;20207;-81
2022/11/23 07:39:46;;;;;;;3.13;2.10;;;;;;;7.07;84.79;94417.84;5090446;28;20226;-79
2022/11/23 07:42:14;;;;;;;4.23;2.40;;;;;;;7.12;84.57;94425.78;5090762;28;20204;-81
2022/11/23 07:44:41;;;;;;;3.90;2.20;;;;;;;7.18;83.82;94430.94;5090000;28;20196;-80
2022/11/23 07:47:07;;;;;;;3.43;1.97;;;;;;;7.23;83.73;94435.50;5089888;28;20213;-80
2022/11/23 07:49:34;;;;;;;3.83;2.10;;;;;;;7.21;82.81;94435.69;5089871;28;20220;-80
2022/11/23 07:52:01;;;;;;;5.23;2.63;;;;;;;7.22;83.20;94424.47;5090039;28;20211;-82
2022/11/23 07:54:28;;;;;;;3.97;2.33;;;;;;;7.20;83.61;94434.09;5089860;28;20207;-78
2022/11/23 07:56:54;;;;;;;3.53;2.30;;;;;;;7.23;82.94;94433.75;5089757;28;20215;-79
2022/11/23 07:59:21;;;;;;;5.60;2.50;;;;;;;7.23;83.00;94438.06;5081211;28;20216;-80
2022/11/23 08:01:47;;;;;;;3.30;2.23;;;;;;;7.27;82.92;94441.84;5090005;28;20195;-78
2022/11/23 08:04:13;;;;;;;7.87;2.80;;;;;;;7.28;82.80;94436.53;5088702;28;20547;-80
2022/11/23 08:06:40;;;;;;;3.53;1.97;;;;;;;7.27;82.45;94441.84;5069661;28;20205;-79
2022/11/23 08:09:08;;;;;;;2.90;2.27;;;;;;;7.32;82.26;94439.50;5069833;28;20231;-81
2022/11/23 08:11:34;;;;;;;2.50;2.10;;;;;;;7.39;82.85;94442.13;5085302;28;20198;-80
2022/11/23 08:14:01;;;;;;;37.23;28.57;;;;;;;7.39;83.24;94448.03;5089204;28;20567;-79
2022/11/23 08:16:30;;;;;;;4.53;3.10;;;;;;;7.36;83.21;94452.72;5085088;28;20207;-80
2022/11/23 08:18:57;;;;;;;4.97;3.17;;;;;;;7.51;83.05;94445.75;5090006;28;20216;-80
2022/11/23 08:21:23;;;;;;;3.33;2.17;;;;;;;7.57;82.59;94455.28;5089462;28;20204;-79
2022/11/23 08:23:49;;;;;;;6.57;2.50;;;;;;;7.65;82.05;94449.22;5089385;28;20204;-80
2022/11/23 08:26:17;;;;;;;2.23;1.90;;;;;;;7.75;82.18;94453.03;5089956;28;20188;-80
2022/11/23 08:28:44;;;;;;;4.90;2.33;;;;;;;7.73;81.32;94451.63;5088564;28;20207;-80
2022/11/23 08:31:13;;;;;;;3.57;2.43;;;;;;;7.78;81.57;94451.88;5089361;28;20196;-80
2022/11/23 08:33:40;;;;;;;2.43;2.10;;;;;;;7.72;79.90;94444.94;5089689;28;20226;-80
2022/11/23 08:36:08;;;;;;;3.40;1.80;;;;;;;7.76;79.73;94451.25;5089500;28;20605;-80
2022/11/23 08:38:35;;;;;;;4.53;1.73;;;;;;;7.85;79.63;94443.25;5088770;28;20651;-82
2022/11/23 08:41:04;;;;;;;5.17;2.00;;;;;;;7.96;79.93;94444.50;5088787;28;20232;-82
2022/11/23 08:43:32;;;;;;;5.83;1.87;;;;;;;8.05;79.19;94445.94;5089036;28;20208;-81
2022/11/23 08:45:59;;;;;;;3.50;1.80;;;;;;;8.07;78.68;94443.19;5089086;28;20227;-81
2022/11/23 08:48:28;;;;;;;2.93;1.90;;;;;;;8.13;78.70;94442.41;5089234;28;20196;-79
2022/11/23 08:50:57;;;;;;;2.70;1.60;;;;;;;8.14;77.94;94444.00;5087980;28;20651;-80
2022/11/23 08:53:24;;;;;;;3.53;1.70;;;;;;;8.13;77.81;94440.66;5088007;28;20223;-79
2022/11/23 08:55:50;;;;;;;3.33;1.70;;;;;;;8.15;77.79;94446.38;5081808;28;20202;-81
2022/11/23 08:58:17;;;;;;;2.90;1.57;;;;;;;8.24;77.45;94439.34;5081277;28;20208;-80
2022/11/23 09:00:45;;;;;;;3.10;1.60;;;;;;;8.27;77.18;94449.22;5088367;28;20212;-80
2022/11/23 09:03:11;;;;;;;2.77;1.60;;;;;;;8.35;77.19;94445.72;5089292;28;20201;-81
2022/11/23 09:05:38;;;;;;;5.67;1.50;;;;;;;8.40;76.65;94446.75;5089149;28;20196;-80
2022/11/23 09:08:05;;;;;;;5.50;1.73;;;;;;;8.42;76.10;94439.66;5089353;28;20196;-81
2022/11/23 09:10:32;;;;;;;4.30;1.70;;;;;;;8.44;75.89;94440.25;5089526;28;20216;-80
2022/11/23 09:12:59;;;;;;;2.50;1.60;;;;;;;8.44;75.62;94436.91;5087091;28;20223;-80
2022/11/23 09:15:25;;;;;;;5.50;1.60;;;;;;;8.40;75.20;94440.81;5078932;28;20549;-80
2022/11/23 09:17:53;;;;;;;2.87;1.80;;;;;;;8.40;74.85;94444.19;5089247;28;20581;-80
2022/11/23 09:20:19;;;;;;;2.70;1.50;;;;;;;8.42;74.43;94441.41;5091045;28;20224;-80
2022/11/23 09:22:50;;;;;;;2.40;1.90;;;;;;;8.47;74.20;94446.75;5092619;28;20196;-80
2022/11/23 09:25:17;;;;;;;3.13;1.70;;;;;;;8.47;74.06;94432.16;5092959;28;20241;-79
2022/11/23 09:27:44;;;;;;;4.10;1.50;;;;;;;8.46;73.45;94440.06;5092019;28;20204;-80
2022/11/23 09:30:11;;;;;;;3.27;1.50;;;;;;;8.58;74.04;94429.06;5091492;28;20212;-79
2022/11/23 09:32:38;;;;;;;4.67;1.60;;;;;;;8.71;73.81;94428.28;5092136;28;20192;-80
2022/11/23 09:35:07;;;;;;;2.63;1.70;;;;;;;8.83;73.29;94434.47;5091453;28;20196;-80
2022/11/23 09:37:33;;;;;;;7.83;5.20;;;;;;;9.08;72.50;94431.34;5091956;28;20208;-80
2022/11/23 09:40:00;;;;;;;3.13;1.87;;;;;;;9.23;69.34;94430.19;5090243;28;20238;-80
2022/11/23 09:42:54;;;;;;;2.23;1.20;;;;;;;9.38;69.31;94430.00;5072258;28;20189;-81
2022/11/23 09:45:35;;;;;;;4.13;1.50;;;;;;;9.51;68.26;94429.97;5090945;28;20200;-79
2022/11/23 09:48:29;;;;;;;1.70;1.07;;;;;;;9.68;67.17;94432.94;5092049;28;20196;-81
2022/11/23 09:51:02;;;;;;;2.53;1.40;;;;;;;9.86;65.98;94427.19;5083313;28;20212;-80
2022/11/23 09:53:32;;;;;;;2.97;1.30;;;;;;;10.02;66.26;94424.97;5078035;28;20200;-79
2022/11/23 09:55:59;;;;;;;3.23;1.77;;;;;;;10.24;65.83;94424.75;5091290;28;20184;-80
2022/11/23 09:58:31;;;;;;;2.20;1.30;;;;;;;10.38;63.42;94423.75;5090680;28;20215;-80
2022/11/23 10:01:01;;;;;;;3.03;1.50;;;;;;;10.44;63.02;94425.47;5090406;28;20279;-79
2022/11/23 10:03:29;;;;;;;1.67;1.20;;;;;;;10.58;64.01;94421.09;5091285;28;20279;-78
2022/11/23 10:06:04;;;;;;;2.73;1.30;;;;;;;10.76;62.56;94422.97;5092247;28;20207;-81
2022/11/23 10:08:39;;;;;;;3.87;1.90;;;;;;;10.93;61.73;94424.06;5091686;28;20619;-80
2022/11/23 10:11:30;;;;;;;3.13;1.50;;;;;;;11.08;60.43;94420.22;5092324;28;20190;-78
2022/11/23 10:14:11;;;;;;;2.87;1.30;;;;;;;11.14;58.45;94422.97;5090732;28;20223;-78
2022/11/23 10:16:48;;;;;;;8.77;4.20;;;;;;;11.21;58.55;94418.53;5085379;28;20200;-80
2022/11/23 10:19:24;;;;;;;4.47;1.83;;;;;;;11.22;58.56;94415.75;5090620;28;20672;-79
2022/11/23 10:21:59;;;;;;;4.03;1.60;;;;;;;11.30;58.52;94412.94;5091355;28;20202;-79
2022/11/23 10:24:31;;;;;;;1.97;1.30;;;;;;;11.34;58.24;94405.59;5090508;28;20187;-78
2022/11/23 10:26:58;;;;;;;1.50;1.30;;;;;;;11.26;59.72;94401.47;5091324;28;20195;-80
2022/11/23 10:29:30;;;;;;;2.20;1.33;;;;;;;11.36;59.47;94400.97;5091310;28;20227;-79
2022/11/23 10:31:57;;;;;;;1.87;1.20;;;;;;;11.45;58.32;94397.16;5091909;28;20191;-80
2022/11/23 10:34:36;;;;;;;3.63;1.40;;;;;;;11.52;57.83;94395.31;5089541;28;20192;-81
2022/11/23 10:37:09;;;;;;;1.87;1.30;;;;;;;11.61;57.49;94385.53;5091252;28;20537;-81
2022/11/23 10:39:36;;;;;;;3.77;1.13;;;;;;;11.67;57.64;94382.09;5091583;28;20565;-81
2022/11/23 10:42:14;;;;;;;3.93;1.20;;;;;;;11.68;56.60;94388.84;5091553;28;20192;-81
2022/11/23 10:44:41;;;;;;;3.10;1.10;;;;;;;11.63;55.76;94370.63;5089777;28;20192;-79
2022/11/23 10:47:08;;;;;;;2.77;1.43;;;;;;;11.60;56.34;94378.78;5082216;28;20203;-80
2022/11/23 10:49:35;;;;;;;3.23;1.40;;;;;;;11.40;55.45;94374.59;5078191;28;20212;-80
2022/11/23 10:52:04;;;;;;;1.37;0.97;;;;;;;11.33;55.51;94380.81;5090455;28;20188;-80
2022/11/23 10:54:34;;;;;;;3.93;1.43;;;;;;;11.30;56.56;94378.66;5089874;28;20219;-80
2022/11/23 10:57:19;;;;;;;2.53;1.20;;;;;;;11.30;56.35;94379.44;5090536;28;20220;-80
2022/11/23 10:59:57;;;;;;;2.73;1.27;;;;;;;11.37;56.36;94374.22;5091093;28;20586;-81
2022/11/23 11:02:24;;;;;;;4.23;1.13;;;;;;;11.40;54.99;94372.00;5090840;28;20226;-80
2022/11/23 11:04:51;;;;;;;2.53;1.10;;;;;;;11.31;55.62;94373.28;5088953;28;20200;-81
2022/11/23 11:07:22;;;;;;;27.97;21.47;;;;;;;11.36;56.19;94376.00;5090848;28;20199;-81
2022/11/23 11:09:51;;;;;;;10.27;7.70;;;;;;;11.48;54.73;94378.69;5083060;28;20240;-79
2022/11/23 11:12:18;;;;;;;3.67;2.03;;;;;;;11.55;54.78;94378.63;5089869;28;20223;-81
2022/11/23 11:15:01;;;;;;;2.87;1.00;;;;;;;11.53;54.69;94380.66;5088009;28;20203;-80
2022/11/23 11:17:30;;;;;;;3.50;1.20;;;;;;;11.52;53.88;94366.97;5087318;28;20211;-81
2022/11/23 11:19:57;;;;;;;2.57;1.10;;;;;;;11.53;54.15;94371.13;5089708;28;20295;-80
2022/11/23 11:22:34;;;;;;;2.37;1.10;;;;;;;11.35;53.58;94366.69;5085995;28;20200;-80
2022/11/23 11:25:04;;;;;;;2.83;1.10;;;;;;;11.37;54.12;94375.00;5085585;28;20192;-80
2022/11/23 11:27:32;;;;;;;1.37;1.03;;;;;;;11.52;53.73;94368.75;5090098;28;20188;-80
2022/11/23 11:30:05;;;;;;;1.73;0.93;;;;;;;11.58;53.14;94363.53;5090819;28;20224;-79
2022/11/23 11:32:40;;;;;;;2.60;1.27;;;;;;;11.67;53.27;94357.13;5090533;28;20192;-78
2022/11/23 11:35:12;;;;;;;1.93;0.97;;;;;;;11.79;53.99;94359.00;5090106;28;20187;-79
2022/11/23 11:37:44;;;;;;;4.77;1.40;;;;;;;11.73;53.87;94353.69;5090202;28;20202;-80
2022/11/23 11:40:19;;;;;;;3.73;1.00;;;;;;;11.91;53.63;94347.78;5089659;28;20242;-80
2022/11/23 11:42:52;;;;;;;3.10;1.03;;;;;;;11.84;54.00;94346.25;5089663;28;20291;-80
2022/11/23 11:45:24;;;;;;;2.53;1.30;;;;;;;11.94;52.69;94344.75;5081862;28;20192;-80